Las Coloradas, Argentina
Current Conditions -  °F | °C
As of 5:00 AM on Tuesday 27 Jan 2015 (Local Time) from SAZS Reporting Station
Few Clouds Few Clouds  
Wind Chill: 11°   Ceiling: Unl
Heat Index: 11°   Visibility: 6mi
Dew Point:   Wind: 23mph
Humidity: 67%   Direction: 320°NW
Pressure: 29.85"   Gusts: NA
Location:  39.55°S, 70.58°W
Report Text: SAZS 270800Z 32020KT 9999 FEW030 11/05 Q1011
Loading
Personal Weather Stations






























Interactive Weather Map New forecast layout! Learn more

10-Day Weather Forecast

Advertisements
Track Severe Weather on mobile